sensor_id;sensor_type;location;lat;lon;timestamp;pressure;altitude;pressure_sealevel;temperature;humidity
77279;BME280;66332;50.436;15.378;2024-03-22T00:01:30;98482.13;;;7.99;93.19
77279;BME280;66332;50.436;15.378;2024-03-22T00:06:11;98473.63;;;7.97;92.73
77279;BME280;66332;50.436;15.378;2024-03-22T00:10:51;98467.81;;;7.77;94.40
77279;BME280;66332;50.436;15.378;2024-03-22T00:15:32;98474.53;;;7.88;93.33
77279;BME280;66332;50.436;15.378;2024-03-22T00:20:13;98470.53;;;7.67;93.83
77279;BME280;66332;50.436;15.378;2024-03-22T00:24:54;98452.06;;;7.43;95.56
77279;BME280;66332;50.436;15.378;2024-03-22T00:29:35;98462.78;;;7.31;96.56
77279;BME280;66332;50.436;15.378;2024-03-22T00:34:15;98437.44;;;7.32;96.72
77279;BME280;66332;50.436;15.378;2024-03-22T00:38:57;98435.47;;;7.08;98.69
77279;BME280;66332;50.436;15.378;2024-03-22T00:43:37;98435.84;;;6.95;99.63
77279;BME280;66332;50.436;15.378;2024-03-22T00:48:18;98434.53;;;6.73;100.00
77279;BME280;66332;50.436;15.378;2024-03-22T00:52:59;98435.44;;;6.64;100.00
77279;BME280;66332;50.436;15.378;2024-03-22T00:57:40;98439.88;;;6.54;100.00
77279;BME280;66332;50.436;15.378;2024-03-22T01:02:21;98433.25;;;6.59;100.00
77279;BME280;66332;50.436;15.378;2024-03-22T01:07:03;98437.38;;;6.62;100.00
77279;BME280;66332;50.436;15.378;2024-03-22T01:11:43;98436.56;;;6.61;100.00
77279;BME280;66332;50.436;15.378;2024-03-22T01:16:24;98434.50;;;6.37;100.00
77279;BME280;66332;50.436;15.378;2024-03-22T01:21:05;98440.72;;;6.36;100.00
77279;BME280;66332;50.436;15.378;2024-03-22T01:25:46;98438.56;;;6.50;100.00
77279;BME280;66332;50.436;15.378;2024-03-22T01:30:26;98436.25;;;6.47;100.00
77279;BME280;66332;50.436;15.378;2024-03-22T01:35:09;98438.41;;;6.69;100.00
77279;BME280;66332;50.436;15.378;2024-03-22T01:39:49;98444.13;;;6.90;100.00
77279;BME280;66332;50.436;15.378;2024-03-22T01:44:31;98433.94;;;6.97;100.00
77279;BME280;66332;50.436;15.378;2024-03-22T01:49:14;98428.59;;;7.07;100.00
77279;BME280;66332;50.436;15.378;2024-03-22T01:53:57;98417.03;;;7.09;100.00
77279;BME280;66332;50.436;15.378;2024-03-22T01:58:39;98409.19;;;7.09;100.00
77279;BME280;66332;50.436;15.378;2024-03-22T02:03:21;98417.78;;;7.02;100.00
77279;BME280;66332;50.436;15.378;2024-03-22T02:08:02;98410.81;;;7.10;100.00
77279;BME280;66332;50.436;15.378;2024-03-22T02:12:43;98415.53;;;7.07;100.00
77279;BME280;66332;50.436;15.378;2024-03-22T02:17:24;98417.03;;;7.09;100.00
77279;BME280;66332;50.436;15.378;2024-03-22T02:22:04;98417.66;;;7.11;100.00
77279;BME280;66332;50.436;15.378;2024-03-22T02:26:45;98409.53;;;7.15;100.00
77279;BME280;66332;50.436;15.378;2024-03-22T02:31:26;98401.34;;;7.09;100.00
77279;BME280;66332;50.436;15.378;2024-03-22T02:36:08;98392.66;;;7.09;100.00
77279;BME280;66332;50.436;15.378;2024-03-22T02:40:52;98387.22;;;7.02;100.00
77279;BME280;66332;50.436;15.378;2024-03-22T02:45:33;98380.28;;;6.93;100.00
77279;BME280;66332;50.436;15.378;2024-03-22T02:50:14;98375.56;;;6.97;100.00
77279;BME280;66332;50.436;15.378;2024-03-22T02:54:54;98369.91;;;7.01;100.00
77279;BME280;66332;50.436;15.378;2024-03-22T02:59:35;98367.72;;;6.97;100.00
77279;BME280;66332;50.436;15.378;2024-03-22T03:04:16;98370.34;;;6.97;100.00
77279;BME280;66332;50.436;15.378;2024-03-22T03:08:57;98381.84;;;7.04;100.00
77279;BME280;66332;50.436;15.378;2024-03-22T03:13:37;98380.34;;;7.01;100.00
77279;BME280;66332;50.436;15.378;2024-03-22T03:18:18;98372.22;;;7.04;100.00
77279;BME280;66332;50.436;15.378;2024-03-22T03:22:59;98359.66;;;7.08;100.00
77279;BME280;66332;50.436;15.378;2024-03-22T03:27:40;98358.31;;;7.04;100.00
77279;BME280;66332;50.436;15.378;2024-03-22T03:32:20;98347.56;;;7.07;100.00
77279;BME280;66332;50.436;15.378;2024-03-22T03:37:01;98346.16;;;7.21;99.88
77279;BME280;66332;50.436;15.378;2024-03-22T03:41:42;98346.81;;;7.23;98.95
77279;BME280;66332;50.436;15.378;2024-03-22T03:46:23;98345.75;;;7.33;97.06
77279;BME280;66332;50.436;15.378;2024-03-22T03:51:05;98350.75;;;7.53;95.26
77279;BME280;66332;50.436;15.378;2024-03-22T03:55:45;98350.66;;;7.37;96.31
77279;BME280;66332;50.436;15.378;2024-03-22T04:00:26;98339.91;;;7.40;96.36
77279;BME280;66332;50.436;15.378;2024-03-22T04:05:07;98341.03;;;7.45;96.13
77279;BME280;66332;50.436;15.378;2024-03-22T04:09:48;98332.78;;;7.58;94.43
77279;BME280;66332;50.436;15.378;2024-03-22T04:14:28;98326.16;;;7.38;96.82
77279;BME280;66332;50.436;15.378;2024-03-22T04:19:09;98316.00;;;7.34;97.15
77279;BME280;66332;50.436;15.378;2024-03-22T04:23:50;98308.97;;;7.35;97.40
77279;BME280;66332;50.436;15.378;2024-03-22T04:28:31;98312.81;;;7.23;98.33
77279;BME280;66332;50.436;15.378;2024-03-22T04:33:12;98306.69;;;7.06;99.97
77279;BME280;66332;50.436;15.378;2024-03-22T04:37:53;98311.47;;;7.10;99.67
77279;BME280;66332;50.436;15.378;2024-03-22T04:42:34;98313.13;;;7.20;98.81
77279;BME280;66332;50.436;15.378;2024-03-22T04:47:15;98330.63;;;7.19;99.52
77279;BME280;66332;50.436;15.378;2024-03-22T04:51:55;98318.13;;;7.05;100.00
77279;BME280;66332;50.436;15.378;2024-03-22T04:56:36;98325.75;;;7.24;99.67
77279;BME280;66332;50.436;15.378;2024-03-22T05:01:17;98326.41;;;7.26;99.61
77279;BME280;66332;50.436;15.378;2024-03-22T05:05:58;98340.78;;;7.22;100.00
77279;BME280;66332;50.436;15.378;2024-03-22T05:10:38;98332.50;;;7.09;100.00
77279;BME280;66332;50.436;15.378;2024-03-22T05:15:19;98325.66;;;7.08;100.00
77279;BME280;66332;50.436;15.378;2024-03-22T05:20:00;98334.13;;;7.02;100.00
77279;BME280;66332;50.436;15.378;2024-03-22T05:24:42;98332.19;;;7.04;100.00
77279;BME280;66332;50.436;15.378;2024-03-22T05:29:22;98330.69;;;7.01;100.00
77279;BME280;66332;50.436;15.378;2024-03-22T05:34:03;98336.91;;;7.00;100.00
77279;BME280;66332;50.436;15.378;2024-03-22T05:38:44;98334.28;;;7.00;100.00
77279;BME280;66332;50.436;15.378;2024-03-22T05:43:25;98332.50;;;7.09;100.00
77279;BME280;66332;50.436;15.378;2024-03-22T05:48:06;98337.84;;;6.99;100.00
77279;BME280;66332;50.436;15.378;2024-03-22T05:52:47;98334.28;;;7.00;100.00
77279;BME280;66332;50.436;15.378;2024-03-22T05:57:28;98341.81;;;7.03;100.00
77279;BME280;66332;50.436;15.378;2024-03-22T06:02:08;98329.44;;;7.13;100.00
77279;BME280;66332;50.436;15.378;2024-03-22T06:06:50;98333.13;;;7.29;99.49
77279;BME280;66332;50.436;15.378;2024-03-22T06:11:30;98337.53;;;7.28;99.11
77279;BME280;66332;50.436;15.378;2024-03-22T06:16:11;98336.88;;;7.26;98.32
77279;BME280;66332;50.436;15.378;2024-03-22T06:20:52;98335.94;;;7.35;98.66
77279;BME280;66332;50.436;15.378;2024-03-22T06:25:36;98336.78;;;7.44;98.01
77279;BME280;66332;50.436;15.378;2024-03-22T06:30:16;98332.06;;;7.48;97.91
77279;BME280;66332;50.436;15.378;2024-03-22T06:34:57;98325.34;;;7.45;98.86
77279;BME280;66332;50.436;15.378;2024-03-22T06:39:38;98326.06;;;7.64;97.55
77279;BME280;66332;50.436;15.378;2024-03-22T06:44:19;98313.06;;;7.80;96.33
77279;BME280;66332;50.436;15.378;2024-03-22T06:49:00;98318.31;;;7.88;95.23
77279;BME280;66332;50.436;15.378;2024-03-22T06:53:41;98328.94;;;7.87;96.87
77279;BME280;66332;50.436;15.378;2024-03-22T06:58:21;98318.16;;;7.90;96.57
77279;BME280;66332;50.436;15.378;2024-03-22T07:03:02;98313.13;;;8.13;94.74
77279;BME280;66332;50.436;15.378;2024-03-22T07:07:43;98311.03;;;8.65;93.94
77279;BME280;66332;50.436;15.378;2024-03-22T07:12:24;98303.97;;;8.82;90.39
77279;BME280;66332;50.436;15.378;2024-03-22T07:17:05;98301.19;;;8.92;89.62
77279;BME280;66332;50.436;15.378;2024-03-22T07:21:49;98299.78;;;9.29;88.46
77279;BME280;66332;50.436;15.378;2024-03-22T07:26:30;98304.84;;;9.30;88.62
77279;BME280;66332;50.436;15.378;2024-03-22T07:31:11;98303.63;;;8.93;86.64
77279;BME280;66332;50.436;15.378;2024-03-22T07:35:52;98306.25;;;9.02;86.54
77279;BME280;66332;50.436;15.378;2024-03-22T07:40:34;98298.94;;;8.64;89.39
77279;BME280;66332;50.436;15.378;2024-03-22T07:45:15;98292.84;;;8.80;88.79
77279;BME280;66332;50.436;15.378;2024-03-22T07:49:56;98295.56;;;9.03;88.79
77279;BME280;66332;50.436;15.378;2024-03-22T07:54:37;98289.38;;;8.96;88.29
77279;BME280;66332;50.436;15.378;2024-03-22T07:59:18;98286.75;;;9.44;87.11
77279;BME280;66332;50.436;15.378;2024-03-22T08:03:58;98287.81;;;9.26;86.93
77279;BME280;66332;50.436;15.378;2024-03-22T08:08:39;98286.31;;;9.32;87.97
77279;BME280;66332;50.436;15.378;2024-03-22T08:13:20;98287.19;;;9.55;85.86
77279;BME280;66332;50.436;15.378;2024-03-22T08:18:01;98281.31;;;9.53;85.86
77279;BME280;66332;50.436;15.378;2024-03-22T08:22:43;98283.19;;;9.68;84.99
77279;BME280;66332;50.436;15.378;2024-03-22T08:27:24;98282.25;;;10.15;83.28
77279;BME280;66332;50.436;15.378;2024-03-22T08:32:05;98275.88;;;10.09;82.95
77279;BME280;66332;50.436;15.378;2024-03-22T08:36:46;98272.09;;;10.11;83.61
77279;BME280;66332;50.436;15.378;2024-03-22T08:41:27;98262.25;;;10.14;84.53
77279;BME280;66332;50.436;15.378;2024-03-22T08:46:07;98261.53;;;10.43;80.45
77279;BME280;66332;50.436;15.378;2024-03-22T08:50:48;98257.34;;;10.10;79.70
77279;BME280;66332;50.436;15.378;2024-03-22T08:55:29;98242.72;;;10.31;79.41
77279;BME280;66332;50.436;15.378;2024-03-22T09:00:10;98251.00;;;10.43;78.18
77279;BME280;66332;50.436;15.378;2024-03-22T09:04:51;98249.63;;;10.70;77.77
77279;BME280;66332;50.436;15.378;2024-03-22T09:09:33;98239.28;;;11.28;77.30
77279;BME280;66332;50.436;15.378;2024-03-22T09:14:14;98231.28;;;11.36;76.51
77279;BME280;66332;50.436;15.378;2024-03-22T09:18:55;98227.31;;;11.10;76.66
77279;BME280;66332;50.436;15.378;2024-03-22T09:23:36;98226.38;;;11.47;74.04
77279;BME280;66332;50.436;15.378;2024-03-22T09:28:17;98224.78;;;11.02;74.83
77279;BME280;66332;50.436;15.378;2024-03-22T09:32:58;98227.94;;;11.27;74.90
77279;BME280;66332;50.436;15.378;2024-03-22T09:37:38;98224.13;;;11.66;72.62
77279;BME280;66332;50.436;15.378;2024-03-22T09:42:22;98215.22;;;12.03;71.00
77279;BME280;66332;50.436;15.378;2024-03-22T09:47:03;98210.03;;;11.74;71.19
77279;BME280;66332;50.436;15.378;2024-03-22T09:51:44;98198.25;;;11.69;71.62
77279;BME280;66332;50.436;15.378;2024-03-22T09:56:25;98206.34;;;11.53;72.34
77279;BME280;66332;50.436;15.378;2024-03-22T10:01:07;98193.09;;;11.61;73.19
77279;BME280;66332;50.436;15.378;2024-03-22T10:05:48;98198.28;;;11.55;74.10
77279;BME280;66332;50.436;15.378;2024-03-22T10:10:29;98186.75;;;11.56;74.08
77279;BME280;66332;50.436;15.378;2024-03-22T10:15:10;98185.34;;;11.38;72.76
77279;BME280;66332;50.436;15.378;2024-03-22T10:19:52;98194.91;;;11.24;73.98
77279;BME280;66332;50.436;15.378;2024-03-22T10:24:33;98176.03;;;11.57;74.55
77279;BME280;66332;50.436;15.378;2024-03-22T10:29:14;98182.22;;;11.71;72.43
77279;BME280;66332;50.436;15.378;2024-03-22T10:33:55;98176.53;;;11.67;72.36
77279;BME280;66332;50.436;15.378;2024-03-22T10:38:39;98180.66;;;11.91;70.65
77279;BME280;66332;50.436;15.378;2024-03-22T10:43:21;98166.41;;;11.86;69.15
77279;BME280;66332;50.436;15.378;2024-03-22T10:48:06;98163.81;;;11.92;69.11
77279;BME280;66332;50.436;15.378;2024-03-22T10:52:52;98164.66;;;11.93;70.51
77279;BME280;66332;50.436;15.378;2024-03-22T10:57:35;98153.16;;;12.01;69.70
77279;BME280;66332;50.436;15.378;2024-03-22T11:02:23;98151.22;;;11.88;69.54
77279;BME280;66332;50.436;15.378;2024-03-22T11:07:04;98147.06;;;11.79;70.72
77279;BME280;66332;50.436;15.378;2024-03-22T11:11:45;98144.06;;;12.31;68.77
77279;BME280;66332;50.436;15.378;2024-03-22T11:16:26;98133.22;;;12.48;65.65
77279;BME280;66332;50.436;15.378;2024-03-22T11:21:07;98130.22;;;13.05;64.78
77279;BME280;66332;50.436;15.378;2024-03-22T11:25:49;98129.13;;;13.28;63.82
77279;BME280;66332;50.436;15.378;2024-03-22T11:30:30;98120.44;;;13.41;64.81
77279;BME280;66332;50.436;15.378;2024-03-22T11:35:13;98114.16;;;13.55;56.93
77279;BME280;66332;50.436;15.378;2024-03-22T11:39:53;98111.31;;;13.63;57.03
77279;BME280;66332;50.436;15.378;2024-03-22T11:44:35;98099.91;;;14.36;52.37
77279;BME280;66332;50.436;15.378;2024-03-22T11:49:17;98094.13;;;14.72;47.19
77279;BME280;66332;50.436;15.378;2024-03-22T11:53:58;98082.97;;;14.63;47.82
77279;BME280;66332;50.436;15.378;2024-03-22T11:58:39;98065.78;;;13.81;50.92
77279;BME280;66332;50.436;15.378;2024-03-22T12:03:19;98056.47;;;13.79;49.17
77279;BME280;66332;50.436;15.378;2024-03-22T12:08:00;98055.03;;;13.83;51.93
77279;BME280;66332;50.436;15.378;2024-03-22T12:12:41;98046.47;;;13.81;52.08
77279;BME280;66332;50.436;15.378;2024-03-22T12:17:22;98033.84;;;14.09;52.16
77279;BME280;66332;50.436;15.378;2024-03-22T12:22:03;98034.19;;;14.33;50.47
77279;BME280;66332;50.436;15.378;2024-03-22T12:26:43;98031.50;;;14.46;49.95
77279;BME280;66332;50.436;15.378;2024-03-22T12:31:24;98023.75;;;13.73;50.81
77279;BME280;66332;50.436;15.378;2024-03-22T12:36:05;98013.34;;;13.71;52.66
77279;BME280;66332;50.436;15.378;2024-03-22T12:40:46;97997.84;;;14.08;49.43
77279;BME280;66332;50.436;15.378;2024-03-22T12:45:27;97992.78;;;14.07;50.41
77279;BME280;66332;50.436;15.378;2024-03-22T12:50:08;97982.44;;;13.92;50.62
77279;BME280;66332;50.436;15.378;2024-03-22T12:54:48;97976.81;;;14.40;51.45
77279;BME280;66332;50.436;15.378;2024-03-22T12:59:29;97968.16;;;14.06;50.37
77279;BME280;66332;50.436;15.378;2024-03-22T13:04:10;97964.13;;;14.55;49.10
77279;BME280;66332;50.436;15.378;2024-03-22T13:08:52;97954.13;;;14.57;48.79
77279;BME280;66332;50.436;15.378;2024-03-22T13:13:32;97954.97;;;14.51;47.72
77279;BME280;66332;50.436;15.378;2024-03-22T13:18:14;97941.69;;;14.64;46.93
77279;BME280;66332;50.436;15.378;2024-03-22T13:22:55;97934.78;;;14.95;46.62
77279;BME280;66332;50.436;15.378;2024-03-22T13:27:37;97922.59;;;15.19;45.69
77279;BME280;66332;50.436;15.378;2024-03-22T13:32:21;97923.53;;;15.75;42.49
77279;BME280;66332;50.436;15.378;2024-03-22T13:37:02;97915.28;;;16.20;40.75
77279;BME280;66332;50.436;15.378;2024-03-22T13:41:43;97913.63;;;16.37;40.95
77279;BME280;66332;50.436;15.378;2024-03-22T13:46:24;97907.69;;;15.68;39.43
77279;BME280;66332;50.436;15.378;2024-03-22T13:51:06;97893.94;;;15.09;41.74
77279;BME280;66332;50.436;15.378;2024-03-22T13:55:53;97892.59;;;15.69;40.55
77279;BME280;66332;50.436;15.378;2024-03-22T14:00:35;97881.09;;;15.93;39.94
77279;BME280;66332;50.436;15.378;2024-03-22T14:05:16;97878.91;;;14.78;46.75
77279;BME280;66332;50.436;15.378;2024-03-22T14:09:57;97870.16;;;14.78;46.94
77279;BME280;66332;50.436;15.378;2024-03-22T14:14:37;97862.56;;;14.56;47.42
77279;BME280;66332;50.436;15.378;2024-03-22T14:19:18;97867.25;;;14.54;47.47
77279;BME280;66332;50.436;15.378;2024-03-22T14:23:59;97862.38;;;14.83;47.19
77279;BME280;66332;50.436;15.378;2024-03-22T14:28:40;97858.69;;;14.84;45.24
77279;BME280;66332;50.436;15.378;2024-03-22T14:33:21;97852.53;;;14.90;42.46
77279;BME280;66332;50.436;15.378;2024-03-22T14:38:01;97842.38;;;14.87;41.41
77279;BME280;66332;50.436;15.378;2024-03-22T14:42:42;97842.44;;;14.80;41.21
77279;BME280;66332;50.436;15.378;2024-03-22T14:47:24;97835.19;;;14.69;41.32
77279;BME280;66332;50.436;15.378;2024-03-22T14:52:06;97827.75;;;14.59;41.97
77279;BME280;66332;50.436;15.378;2024-03-22T14:56:47;97825.31;;;14.83;42.62
77279;BME280;66332;50.436;15.378;2024-03-22T15:01:28;97817.91;;;14.35;41.97
77279;BME280;66332;50.436;15.378;2024-03-22T15:06:09;97810.09;;;14.15;42.33
77279;BME280;66332;50.436;15.378;2024-03-22T15:10:50;97808.38;;;14.27;42.28
77279;BME280;66332;50.436;15.378;2024-03-22T15:15:30;97792.75;;;14.26;42.95
77279;BME280;66332;50.436;15.378;2024-03-22T15:20:11;97789.00;;;14.40;42.93
77279;BME280;66332;50.436;15.378;2024-03-22T15:24:52;97783.66;;;14.46;43.27
77279;BME280;66332;50.436;15.378;2024-03-22T15:29:33;97775.34;;;14.43;43.79
77279;BME280;66332;50.436;15.378;2024-03-22T15:34:14;97766.88;;;14.59;44.32
77279;BME280;66332;50.436;15.378;2024-03-22T15:38:55;97769.09;;;14.62;44.80
77279;BME280;66332;50.436;15.378;2024-03-22T15:43:36;97756.22;;;14.41;46.17
77279;BME280;66332;50.436;15.378;2024-03-22T15:48:16;97755.63;;;14.39;46.32
77279;BME280;66332;50.436;15.378;2024-03-22T15:53:01;97751.56;;;14.68;46.05
77279;BME280;66332;50.436;15.378;2024-03-22T15:57:42;97752.97;;;14.39;47.82
77279;BME280;66332;50.436;15.378;2024-03-22T16:02:22;97744.22;;;14.38;47.90
77279;BME280;66332;50.436;15.378;2024-03-22T16:07:04;97731.22;;;14.37;47.96
77279;BME280;66332;50.436;15.378;2024-03-22T16:11:46;97736.03;;;14.72;47.17
77279;BME280;66332;50.436;15.378;2024-03-22T16:16:28;97728.78;;;14.35;48.01
77279;BME280;66332;50.436;15.378;2024-03-22T16:21:10;97727.00;;;14.29;49.32
77279;BME280;66332;50.436;15.378;2024-03-22T16:25:52;97718.88;;;14.31;50.06
77279;BME280;66332;50.436;15.378;2024-03-22T16:30:33;97719.00;;;14.11;51.98
77279;BME280;66332;50.436;15.378;2024-03-22T16:35:14;97716.44;;;13.66;56.88
77279;BME280;66332;50.436;15.378;2024-03-22T16:39:56;97713.94;;;13.77;60.18
77279;BME280;66332;50.436;15.378;2024-03-22T16:44:38;97709.41;;;13.53;58.90
77279;BME280;66332;50.436;15.378;2024-03-22T16:49:20;97715.63;;;13.65;59.02
77279;BME280;66332;50.436;15.378;2024-03-22T16:54:01;97705.94;;;13.52;60.09
77279;BME280;66332;50.436;15.378;2024-03-22T16:58:44;97714.38;;;13.36;62.29
77279;BME280;66332;50.436;15.378;2024-03-22T17:03:26;97701.00;;;13.18;63.48
77279;BME280;66332;50.436;15.378;2024-03-22T17:08:07;97707.91;;;13.12;64.87
77279;BME280;66332;50.436;15.378;2024-03-22T17:12:49;97699.34;;;13.17;66.18
77279;BME280;66332;50.436;15.378;2024-03-22T17:17:31;97700.97;;;13.24;66.00
77279;BME280;66332;50.436;15.378;2024-03-22T17:22:13;97697.13;;;13.14;67.06
77279;BME280;66332;50.436;15.378;2024-03-22T17:26:53;97693.38;;;12.83;67.46
77279;BME280;66332;50.436;15.378;2024-03-22T17:31:37;97688.31;;;12.75;67.56
77279;BME280;66332;50.436;15.378;2024-03-22T17:36:19;97689.16;;;12.62;68.56
77279;BME280;66332;50.436;15.378;2024-03-22T17:41:00;97680.03;;;12.65;68.69
77279;BME280;66332;50.436;15.378;2024-03-22T17:45:42;97689.56;;;12.52;68.73
77279;BME280;66332;50.436;15.378;2024-03-22T17:50:24;97683.69;;;12.44;68.85
77279;BME280;66332;50.436;15.378;2024-03-22T17:55:07;97681.28;;;12.15;74.53
77279;BME280;66332;50.436;15.378;2024-03-22T17:59:48;97675.97;;;11.69;78.59
77279;BME280;66332;50.436;15.378;2024-03-22T18:04:31;97677.56;;;11.57;80.40
77279;BME280;66332;50.436;15.378;2024-03-22T18:09:12;97675.72;;;11.57;80.16
77279;BME280;66332;50.436;15.378;2024-03-22T18:13:55;97681.69;;;11.99;73.53
77279;BME280;66332;50.436;15.378;2024-03-22T18:18:37;97680.25;;;12.16;72.00
77279;BME280;66332;50.436;15.378;2024-03-22T18:23:19;97677.22;;;12.26;68.69
77279;BME280;66332;50.436;15.378;2024-03-22T18:27:59;97681.88;;;12.37;66.18
77279;BME280;66332;50.436;15.378;2024-03-22T18:32:40;97665.88;;;12.39;65.87
77279;BME280;66332;50.436;15.378;2024-03-22T18:37:21;97660.19;;;12.49;64.70
77279;BME280;66332;50.436;15.378;2024-03-22T18:42:02;97648.63;;;12.36;65.02
77279;BME280;66332;50.436;15.378;2024-03-22T18:46:44;97649.22;;;12.38;65.45
77279;BME280;66332;50.436;15.378;2024-03-22T18:51:27;97650.47;;;12.36;64.77
77279;BME280;66332;50.436;15.378;2024-03-22T18:56:08;97646.41;;;12.33;65.05
77279;BME280;66332;50.436;15.378;2024-03-22T19:00:50;97649.06;;;12.27;65.63
77279;BME280;66332;50.436;15.378;2024-03-22T19:05:31;97632.63;;;12.31;66.61
77279;BME280;66332;50.436;15.378;2024-03-22T19:10:11;97626.97;;;12.21;66.78
77279;BME280;66332;50.436;15.378;2024-03-22T19:14:54;97611.31;;;12.26;66.47
77279;BME280;66332;50.436;15.378;2024-03-22T19:19:34;97615.78;;;12.26;65.92
77279;BME280;66332;50.436;15.378;2024-03-22T19:24:15;97618.25;;;12.21;66.89
77279;BME280;66332;50.436;15.378;2024-03-22T19:28:58;97611.16;;;12.14;66.40
77279;BME280;66332;50.436;15.378;2024-03-22T19:33:38;97602.63;;;12.12;66.94
77279;BME280;66332;50.436;15.378;2024-03-22T19:38:19;97597.97;;;12.14;68.92
77279;BME280;66332;50.436;15.378;2024-03-22T19:43:00;97587.84;;;12.11;68.38
77279;BME280;66332;50.436;15.378;2024-03-22T19:47:41;97591.31;;;12.05;68.75
77279;BME280;66332;50.436;15.378;2024-03-22T19:52:22;97592.50;;;11.89;69.46
77279;BME280;66332;50.436;15.378;2024-03-22T19:57:03;97587.03;;;11.91;69.00
77279;BME280;66332;50.436;15.378;2024-03-22T20:01:43;97583.59;;;11.84;69.53
77279;BME280;66332;50.436;15.378;2024-03-22T20:06:24;97575.28;;;12.00;69.42
77279;BME280;66332;50.436;15.378;2024-03-22T20:11:05;97563.50;;;12.09;68.51
77279;BME280;66332;50.436;15.378;2024-03-22T20:15:46;97556.47;;;11.90;74.03
77279;BME280;66332;50.436;15.378;2024-03-22T20:20:28;97557.59;;;11.21;80.42
77279;BME280;66332;50.436;15.378;2024-03-22T20:25:09;97561.56;;;10.90;84.18
77279;BME280;66332;50.436;15.378;2024-03-22T20:29:50;97558.69;;;10.72;87.43
77279;BME280;66332;50.436;15.378;2024-03-22T20:34:31;97552.56;;;10.58;88.78
